sensor_id;sensor_type;location;lat;lon;timestamp;pressure;altitude;pressure_sealevel;temperature;humidity
5814;BME280;2933;52.302;8.134;2023-04-12T00:02:57;99732.22;;;5.89;87.25
5814;BME280;2933;52.302;8.134;2023-04-12T00:08:02;99714.44;;;5.99;88.19
5814;BME280;2933;52.302;8.134;2023-04-12T00:13:04;99699.28;;;5.91;89.55
5814;BME280;2933;52.302;8.134;2023-04-12T00:18:08;99671.44;;;5.95;91.01
5814;BME280;2933;52.302;8.134;2023-04-12T00:23:10;99662.06;;;5.92;92.60
5814;BME280;2933;52.302;8.134;2023-04-12T00:28:12;99647.88;;;6.00;92.82
5814;BME280;2933;52.302;8.134;2023-04-12T00:33:15;99653.13;;;6.14;92.95
5814;BME280;2933;52.302;8.134;2023-04-12T00:38:16;99642.50;;;6.03;93.74
5814;BME280;2933;52.302;8.134;2023-04-12T00:43:18;99639.88;;;6.04;92.25
5814;BME280;2933;52.302;8.134;2023-04-12T00:48:21;99613.91;;;5.88;93.49
5814;BME280;2933;52.302;8.134;2023-04-12T00:53:22;99626.97;;;6.03;93.49
5814;BME280;2933;52.302;8.134;2023-04-12T00:58:24;99617.34;;;6.05;92.21
5814;BME280;2933;52.302;8.134;2023-04-12T01:03:27;99602.13;;;5.98;93.15
5814;BME280;2933;52.302;8.134;2023-04-12T01:08:37;99605.06;;;6.08;92.80
5814;BME280;2933;52.302;8.134;2023-04-12T01:13:44;99593.47;;;6.14;94.67
5814;BME280;2933;52.302;8.134;2023-04-12T01:18:50;99586.72;;;6.11;96.30
5814;BME280;2933;52.302;8.134;2023-04-12T01:24:10;99577.00;;;6.15;95.94
5814;BME280;2933;52.302;8.134;2023-04-12T01:29:23;99575.31;;;6.14;96.21
5814;BME280;2933;52.302;8.134;2023-04-12T01:34:29;99558.13;;;6.13;94.77
5814;BME280;2933;52.302;8.134;2023-04-12T01:39:32;99545.06;;;6.14;95.06
5814;BME280;2933;52.302;8.134;2023-04-12T01:44:35;99532.09;;;6.14;95.12
5814;BME280;2933;52.302;8.134;2023-04-12T01:49:43;99522.50;;;6.31;94.78
5814;BME280;2933;52.302;8.134;2023-04-12T01:54:53;99511.66;;;6.24;95.81
5814;BME280;2933;52.302;8.134;2023-04-12T02:00:01;99500.25;;;6.27;95.07
5814;BME280;2933;52.302;8.134;2023-04-12T02:05:06;99510.28;;;6.33;94.94
5814;BME280;2933;52.302;8.134;2023-04-12T02:10:12;99502.19;;;6.38;96.52
5814;BME280;2933;52.302;8.134;2023-04-12T02:15:15;99487.09;;;6.30;95.94
5814;BME280;2933;52.302;8.134;2023-04-12T02:20:17;99486.44;;;6.26;96.57
5814;BME280;2933;52.302;8.134;2023-04-12T02:25:18;99476.56;;;6.33;96.84
5814;BME280;2933;52.302;8.134;2023-04-12T02:30:21;99465.31;;;6.33;96.40
5814;BME280;2933;52.302;8.134;2023-04-12T02:35:23;99452.91;;;6.38;97.65
5814;BME280;2933;52.302;8.134;2023-04-12T02:40:25;99436.13;;;6.29;98.61
5814;BME280;2933;52.302;8.134;2023-04-12T02:45:28;99418.84;;;6.29;97.21
5814;BME280;2933;52.302;8.134;2023-04-12T02:50:30;99412.53;;;6.48;95.79
5814;BME280;2933;52.302;8.134;2023-04-12T02:55:31;99396.22;;;6.46;96.34
5814;BME280;2933;52.302;8.134;2023-04-12T03:00:34;99383.25;;;6.46;96.77
5814;BME280;2933;52.302;8.134;2023-04-12T03:05:36;99372.00;;;6.60;96.60
5814;BME280;2933;52.302;8.134;2023-04-12T03:10:38;99370.41;;;6.72;97.32
5814;BME280;2933;52.302;8.134;2023-04-12T03:15:41;99367.72;;;7.01;94.38
5814;BME280;2933;52.302;8.134;2023-04-12T03:20:43;99352.91;;;7.03;94.24
5814;BME280;2933;52.302;8.134;2023-04-12T03:25:45;99344.38;;;7.14;93.59
5814;BME280;2933;52.302;8.134;2023-04-12T03:30:48;99346.41;;;7.23;93.70
5814;BME280;2933;52.302;8.134;2023-04-12T03:35:50;99352.13;;;7.28;94.99
5814;BME280;2933;52.302;8.134;2023-04-12T03:40:51;99331.00;;;7.20;98.41
5814;BME280;2933;52.302;8.134;2023-04-12T03:45:54;99315.41;;;7.07;100.00
5814;BME280;2933;52.302;8.134;2023-04-12T03:50:56;99298.78;;;7.09;100.00
5814;BME280;2933;52.302;8.134;2023-04-12T03:55:59;99283.06;;;6.98;100.00
5814;BME280;2933;52.302;8.134;2023-04-12T04:01:02;99276.56;;;7.05;100.00
5814;BME280;2933;52.302;8.134;2023-04-12T04:06:06;99259.38;;;6.90;100.00
5814;BME280;2933;52.302;8.134;2023-04-12T04:11:07;99235.41;;;6.99;100.00
5814;BME280;2933;52.302;8.134;2023-04-12T04:16:10;99232.72;;;7.01;100.00
5814;BME280;2933;52.302;8.134;2023-04-12T04:21:12;99213.28;;;6.93;100.00
5814;BME280;2933;52.302;8.134;2023-04-12T04:26:14;99186.38;;;6.94;100.00
5814;BME280;2933;52.302;8.134;2023-04-12T04:31:17;99187.41;;;6.79;100.00
5814;BME280;2933;52.302;8.134;2023-04-12T04:36:19;99185.13;;;6.87;100.00
5814;BME280;2933;52.302;8.134;2023-04-12T04:41:20;99174.22;;;6.82;100.00
5814;BME280;2933;52.302;8.134;2023-04-12T04:46:25;99172.34;;;6.84;100.00
5814;BME280;2933;52.302;8.134;2023-04-12T04:51:29;99154.91;;;6.99;100.00
5814;BME280;2933;52.302;8.134;2023-04-12T04:56:31;99161.16;;;6.97;100.00
5814;BME280;2933;52.302;8.134;2023-04-12T05:01:34;99149.72;;;6.99;100.00
5814;BME280;2933;52.302;8.134;2023-04-12T05:06:35;99136.44;;;7.04;100.00
5814;BME280;2933;52.302;8.134;2023-04-12T05:11:37;99141.81;;;7.14;100.00
5814;BME280;2933;52.302;8.134;2023-04-12T05:16:40;99119.91;;;7.18;100.00
5814;BME280;2933;52.302;8.134;2023-04-12T05:21:41;99107.31;;;7.24;100.00
5814;BME280;2933;52.302;8.134;2023-04-12T05:26:44;99108.88;;;7.27;100.00
5814;BME280;2933;52.302;8.134;2023-04-12T05:31:47;99101.81;;;7.29;100.00
5814;BME280;2933;52.302;8.134;2023-04-12T05:36:49;99090.50;;;7.30;100.00
5814;BME280;2933;52.302;8.134;2023-04-12T05:41:50;99085.22;;;7.19;100.00
5814;BME280;2933;52.302;8.134;2023-04-12T05:46:53;99081.22;;;7.26;100.00
5814;BME280;2933;52.302;8.134;2023-04-12T05:51:55;99069.53;;;7.20;100.00
5814;BME280;2933;52.302;8.134;2023-04-12T05:56:56;99066.56;;;7.38;100.00
5814;BME280;2933;52.302;8.134;2023-04-12T06:01:59;99062.38;;;7.48;100.00
5814;BME280;2933;52.302;8.134;2023-04-12T06:07:00;99058.81;;;7.62;100.00
5814;BME280;2933;52.302;8.134;2023-04-12T06:12:02;99047.69;;;7.60;100.00
5814;BME280;2933;52.302;8.134;2023-04-12T06:17:05;99040.88;;;7.70;100.00
5814;BME280;2933;52.302;8.134;2023-04-12T06:22:07;99039.38;;;7.79;100.00
5814;BME280;2933;52.302;8.134;2023-04-12T06:27:08;99020.13;;;7.82;100.00
5814;BME280;2933;52.302;8.134;2023-04-12T06:32:11;99022.53;;;7.85;100.00
5814;BME280;2933;52.302;8.134;2023-04-12T06:37:13;99014.13;;;7.81;100.00
5814;BME280;2933;52.302;8.134;2023-04-12T06:42:16;99007.53;;;7.88;100.00
5814;BME280;2933;52.302;8.134;2023-04-12T06:47:19;98981.34;;;7.67;100.00
5814;BME280;2933;52.302;8.134;2023-04-12T06:52:22;98986.94;;;7.85;100.00
5814;BME280;2933;52.302;8.134;2023-04-12T06:57:24;98978.66;;;7.80;100.00
5814;BME280;2933;52.302;8.134;2023-04-12T07:02:27;98968.41;;;7.90;100.00
5814;BME280;2933;52.302;8.134;2023-04-12T07:07:28;98953.00;;;7.75;100.00
5814;BME280;2933;52.302;8.134;2023-04-12T07:12:30;98954.38;;;7.68;100.00
5814;BME280;2933;52.302;8.134;2023-04-12T07:17:33;98946.91;;;7.52;100.00
5814;BME280;2933;52.302;8.134;2023-04-12T07:22:34;98933.28;;;7.49;100.00
5814;BME280;2933;52.302;8.134;2023-04-12T07:27:36;98922.66;;;7.52;100.00
5814;BME280;2933;52.302;8.134;2023-04-12T07:32:38;98913.13;;;7.52;100.00
5814;BME280;2933;52.302;8.134;2023-04-12T07:37:40;98910.31;;;7.31;100.00
5814;BME280;2933;52.302;8.134;2023-04-12T07:42:41;98910.97;;;7.46;100.00
5814;BME280;2933;52.302;8.134;2023-04-12T07:47:44;98891.75;;;7.60;100.00
5814;BME280;2933;52.302;8.134;2023-04-12T07:52:46;98878.97;;;7.57;100.00
5814;BME280;2933;52.302;8.134;2023-04-12T07:57:48;98876.66;;;7.65;100.00
5814;BME280;2933;52.302;8.134;2023-04-12T08:02:50;98875.47;;;7.69;100.00
5814;BME280;2933;52.302;8.134;2023-04-12T08:07:52;98867.44;;;7.72;100.00
5814;BME280;2933;52.302;8.134;2023-04-12T08:12:53;98855.59;;;7.57;100.00
5814;BME280;2933;52.302;8.134;2023-04-12T08:17:56;98861.88;;;7.66;100.00
5814;BME280;2933;52.302;8.134;2023-04-12T08:22:58;98858.56;;;7.64;100.00
5814;BME280;2933;52.302;8.134;2023-04-12T08:27:59;98848.38;;;7.49;100.00
5814;BME280;2933;52.302;8.134;2023-04-12T08:33:02;98846.63;;;7.61;100.00
5814;BME280;2933;52.302;8.134;2023-04-12T08:38:04;98842.13;;;7.63;100.00
5814;BME280;2933;52.302;8.134;2023-04-12T08:43:07;98838.66;;;7.98;100.00
5814;BME280;2933;52.302;8.134;2023-04-12T08:48:10;98822.22;;;7.86;100.00
5814;BME280;2933;52.302;8.134;2023-04-12T08:53:12;98824.25;;;8.17;100.00
5814;BME280;2933;52.302;8.134;2023-04-12T08:58:14;98818.53;;;8.12;100.00
5814;BME280;2933;52.302;8.134;2023-04-12T09:03:17;98800.69;;;8.18;100.00
5814;BME280;2933;52.302;8.134;2023-04-12T09:08:18;98809.09;;;8.22;100.00
5814;BME280;2933;52.302;8.134;2023-04-12T09:13:30;98791.47;;;8.25;100.00
5814;BME280;2933;52.302;8.134;2023-04-12T09:18:47;98785.06;;;8.30;100.00
5814;BME280;2933;52.302;8.134;2023-04-12T09:24:01;98785.31;;;8.15;100.00
5814;BME280;2933;52.302;8.134;2023-04-12T09:29:03;98775.19;;;8.01;100.00
5814;BME280;2933;52.302;8.134;2023-04-12T09:34:07;98761.59;;;7.97;100.00
5814;BME280;2933;52.302;8.134;2023-04-12T09:39:08;98764.66;;;8.02;100.00
5814;BME280;2933;52.302;8.134;2023-04-12T09:44:27;98749.78;;;8.04;100.00
5814;BME280;2933;52.302;8.134;2023-04-12T09:49:37;98753.41;;;8.13;100.00
5814;BME280;2933;52.302;8.134;2023-04-12T09:54:42;98751.88;;;8.11;100.00
5814;BME280;2933;52.302;8.134;2023-04-12T09:59:45;98751.50;;;8.15;100.00
5814;BME280;2933;52.302;8.134;2023-04-12T10:04:50;98749.97;;;8.13;100.00
5814;BME280;2933;52.302;8.134;2023-04-12T10:09:52;98751.88;;;8.11;100.00
5814;BME280;2933;52.302;8.134;2023-04-12T10:14:54;98743.81;;;8.25;100.00
5814;BME280;2933;52.302;8.134;2023-04-12T10:19:57;98745.94;;;8.20;100.00
5814;BME280;2933;52.302;8.134;2023-04-12T10:24:59;98730.09;;;8.23;100.00
5814;BME280;2933;52.302;8.134;2023-04-12T10:30:22;98736.22;;;8.33;100.00
5814;BME280;2933;52.302;8.134;2023-04-12T10:35:26;98730.13;;;8.67;100.00
5814;BME280;2933;52.302;8.134;2023-04-12T10:40:27;98726.31;;;8.71;100.00
5814;BME280;2933;52.302;8.134;2023-04-12T10:45:37;98722.84;;;8.82;100.00
5814;BME280;2933;52.302;8.134;2023-04-12T10:50:40;98720.88;;;8.95;100.00
5814;BME280;2933;52.302;8.134;2023-04-12T10:55:42;98716.59;;;8.73;100.00
5814;BME280;2933;52.302;8.134;2023-04-12T11:01:09;98718.13;;;8.76;100.00
5814;BME280;2933;52.302;8.134;2023-04-12T11:06:12;98720.81;;;8.85;100.00
5814;BME280;2933;52.302;8.134;2023-04-12T11:11:18;98713.88;;;8.75;100.00
5814;BME280;2933;52.302;8.134;2023-04-12T11:16:21;98702.75;;;8.72;100.00
5814;BME280;2933;52.302;8.134;2023-04-12T11:21:24;98700.28;;;8.92;100.00
5814;BME280;2933;52.302;8.134;2023-04-12T11:26:28;98695.63;;;9.17;100.00
5814;BME280;2933;52.302;8.134;2023-04-12T11:31:31;98694.72;;;9.49;100.00
5814;BME280;2933;52.302;8.134;2023-04-12T11:36:33;98686.47;;;9.53;100.00
5814;BME280;2933;52.302;8.134;2023-04-12T11:41:36;98680.16;;;9.46;100.00
5814;BME280;2933;52.302;8.134;2023-04-12T11:46:37;98679.53;;;9.33;100.00
5814;BME280;2933;52.302;8.134;2023-04-12T11:51:40;98683.06;;;9.22;100.00
5814;BME280;2933;52.302;8.134;2023-04-12T11:56:42;98681.66;;;9.18;100.00
5814;BME280;2933;52.302;8.134;2023-04-12T12:01:43;98684.84;;;9.21;100.00
5814;BME280;2933;52.302;8.134;2023-04-12T12:06:46;98661.91;;;9.15;100.00
5814;BME280;2933;52.302;8.134;2023-04-12T12:11:48;98674.38;;;9.12;100.00
5814;BME280;2933;52.302;8.134;2023-04-12T12:16:51;98674.94;;;9.15;100.00
5814;BME280;2933;52.302;8.134;2023-04-12T12:22:09;98682.47;;;9.18;100.00
5814;BME280;2933;52.302;8.134;2023-04-12T12:27:12;98679.22;;;9.26;100.00
5814;BME280;2933;52.302;8.134;2023-04-12T12:32:13;98687.66;;;9.40;100.00
5814;BME280;2933;52.302;8.134;2023-04-12T12:37:19;98684.81;;;9.43;100.00
5814;BME280;2933;52.302;8.134;2023-04-12T12:42:21;98679.78;;;9.61;100.00
5814;BME280;2933;52.302;8.134;2023-04-12T12:47:23;98677.44;;;9.98;100.00
5814;BME280;2933;52.302;8.134;2023-04-12T12:52:26;98675.13;;;10.15;100.00
5814;BME280;2933;52.302;8.134;2023-04-12T12:57:27;98676.09;;;10.24;100.00
5814;BME280;2933;52.302;8.134;2023-04-12T13:02:29;98669.69;;;10.47;100.00
5814;BME280;2933;52.302;8.134;2023-04-12T13:07:32;98668.59;;;10.60;100.00
5814;BME280;2933;52.302;8.134;2023-04-12T13:12:34;98656.28;;;11.09;100.00
5814;BME280;2933;52.302;8.134;2023-04-12T13:17:35;98658.78;;;10.91;100.00
5814;BME280;2933;52.302;8.134;2023-04-12T13:22:38;98658.78;;;10.81;100.00
5814;BME280;2933;52.302;8.134;2023-04-12T13:27:40;98661.41;;;10.81;100.00
5814;BME280;2933;52.302;8.134;2023-04-12T13:32:41;98654.56;;;10.71;100.00
5814;BME280;2933;52.302;8.134;2023-04-12T13:37:45;98657.47;;;10.38;100.00
5814;BME280;2933;52.302;8.134;2023-04-12T13:42:46;98655.50;;;10.11;100.00
5814;BME280;2933;52.302;8.134;2023-04-12T13:47:48;98646.97;;;10.18;100.00
5814;BME280;2933;52.302;8.134;2023-04-12T13:52:51;98635.75;;;10.38;100.00
5814;BME280;2933;52.302;8.134;2023-04-12T13:57:52;98637.94;;;10.52;100.00
5814;BME280;2933;52.302;8.134;2023-04-12T14:02:54;98615.06;;;10.93;100.00
5814;BME280;2933;52.302;8.134;2023-04-12T14:07:58;98614.34;;;11.01;100.00
5814;BME280;2933;52.302;8.134;2023-04-12T14:12:59;98622.03;;;11.03;100.00
5814;BME280;2933;52.302;8.134;2023-04-12T14:18:01;98634.03;;;10.95;100.00
5814;BME280;2933;52.302;8.134;2023-04-12T14:23:04;98620.16;;;11.60;100.00
5814;BME280;2933;52.302;8.134;2023-04-12T14:28:05;98615.47;;;11.64;100.00
5814;BME280;2933;52.302;8.134;2023-04-12T14:33:07;98613.97;;;11.24;100.00
5814;BME280;2933;52.302;8.134;2023-04-12T14:38:10;98617.41;;;11.34;100.00
5814;BME280;2933;52.302;8.134;2023-04-12T14:43:11;98610.69;;;11.50;100.00
5814;BME280;2933;52.302;8.134;2023-04-12T14:48:13;98596.09;;;11.57;100.00
5814;BME280;2933;52.302;8.134;2023-04-12T14:53:16;98596.50;;;11.52;100.00
5814;BME280;2933;52.302;8.134;2023-04-12T14:58:19;98609.00;;;11.58;100.00
5814;BME280;2933;52.302;8.134;2023-04-12T15:03:20;98617.09;;;11.65;100.00
5814;BME280;2933;52.302;8.134;2023-04-12T15:08:23;98629.94;;;11.30;100.00
5814;BME280;2933;52.302;8.134;2023-04-12T15:13:25;98642.13;;;11.40;98.51
5814;BME280;2933;52.302;8.134;2023-04-12T15:18:27;98651.25;;;11.26;89.95
5814;BME280;2933;52.302;8.134;2023-04-12T15:23:29;98652.41;;;11.13;90.77
5814;BME280;2933;52.302;8.134;2023-04-12T15:28:31;98651.84;;;11.10;90.22
5814;BME280;2933;52.302;8.134;2023-04-12T15:33:33;98666.06;;;10.97;91.99
5814;BME280;2933;52.302;8.134;2023-04-12T15:38:39;98728.88;;;9.86;93.25
5814;BME280;2933;52.302;8.134;2023-04-12T15:43:41;98721.31;;;8.79;100.00
5814;BME280;2933;52.302;8.134;2023-04-12T15:48:48;98709.34;;;8.44;100.00
5814;BME280;2933;52.302;8.134;2023-04-12T15:53:51;98710.38;;;8.09;100.00
5814;BME280;2933;52.302;8.134;2023-04-12T15:58:53;98723.94;;;8.24;100.00
5814;BME280;2933;52.302;8.134;2023-04-12T16:03:55;98736.09;;;8.35;100.00
5814;BME280;2933;52.302;8.134;2023-04-12T16:08:59;98744.78;;;8.01;100.00
5814;BME280;2933;52.302;8.134;2023-04-12T16:14:00;98762.88;;;7.80;100.00
5814;BME280;2933;52.302;8.134;2023-04-12T16:19:02;98778.00;;;7.75;100.00
5814;BME280;2933;52.302;8.134;2023-04-12T16:24:05;98794.50;;;7.40;100.00
5814;BME280;2933;52.302;8.134;2023-04-12T16:29:07;98783.41;;;7.38;100.00
5814;BME280;2933;52.302;8.134;2023-04-12T16:34:09;98794.44;;;7.17;100.00
5814;BME280;2933;52.302;8.134;2023-04-12T16:39:12;98812.19;;;6.99;100.00
5814;BME280;2933;52.302;8.134;2023-04-12T16:44:15;98813.41;;;7.06;100.00
5814;BME280;2933;52.302;8.134;2023-04-12T16:49:17;98797.94;;;7.05;100.00
5814;BME280;2933;52.302;8.134;2023-04-12T16:54:20;98800.59;;;7.16;100.00
5814;BME280;2933;52.302;8.134;2023-04-12T16:59:22;98795.06;;;7.32;100.00
5814;BME280;2933;52.302;8.134;2023-04-12T17:04:23;98798.16;;;7.37;100.00
5814;BME280;2933;52.302;8.134;2023-04-12T17:09:27;98795.94;;;7.44;100.00
5814;BME280;2933;52.302;8.134;2023-04-12T17:14:28;98792.25;;;7.35;100.00
5814;BME280;2933;52.302;8.134;2023-04-12T17:19:30;98791.66;;;7.43;100.00
5814;BME280;2933;52.302;8.134;2023-04-12T17:24:32;98791.22;;;7.60;100.00
5814;BME280;2933;52.302;8.134;2023-04-12T17:29:34;98782.81;;;7.57;100.00
5814;BME280;2933;52.302;8.134;2023-04-12T17:34:35;98797.19;;;7.27;100.00
5814;BME280;2933;52.302;8.134;2023-04-12T17:39:38;98802.75;;;7.34;100.00
5814;BME280;2933;52.302;8.134;2023-04-12T17:44:40;98801.44;;;7.28;100.00
5814;BME280;2933;52.302;8.134;2023-04-12T17:49:41;98800.13;;;7.22;100.00
5814;BME280;2933;52.302;8.134;2023-04-12T17:54:44;98803.88;;;7.18;100.00
5814;BME280;2933;52.302;8.134;2023-04-12T17:59:46;98815.22;;;7.17;100.00
5814;BME280;2933;52.302;8.134;2023-04-12T18:04:47;98809.31;;;7.15;100.00
5814;BME280;2933;52.302;8.134;2023-04-12T18:09:51;98808.47;;;7.15;100.00
5814;BME280;2933;52.302;8.134;2023-04-12T18:14:52;98810.97;;;7.16;100.00
5814;BME280;2933;52.302;8.134;2023-04-12T18:19:54;98802.66;;;7.11;100.00
5814;BME280;2933;52.302;8.134;2023-04-12T18:25:00;98805.59;;;6.95;100.00
5814;BME280;2933;52.302;8.134;2023-04-12T18:30:01;98788.44;;;6.92;100.00
5814;BME280;2933;52.302;8.134;2023-04-12T18:35:04;98801.59;;;6.78;100.00
5814;BME280;2933;52.302;8.134;2023-04-12T18:40:08;98773.16;;;6.52;100.00
5814;BME280;2933;52.302;8.134;2023-04-12T18:45:11;98781.19;;;6.49;100.00
5814;BME280;2933;52.302;8.134;2023-04-12T18:50:13;98787.56;;;6.32;100.00
5814;BME280;2933;52.302;8.134;2023-04-12T18:55:16;98795.03;;;6.24;100.00
5814;BME280;2933;52.302;8.134;2023-04-12T19:00:18;98811.03;;;6.18;100.00
5814;BME280;2933;52.302;8.134;2023-04-12T19:05:20;98812.13;;;6.26;100.00
5814;BME280;2933;52.302;8.134;2023-04-12T19:10:23;98816.34;;;6.03;100.00
5814;BME280;2933;52.302;8.134;2023-04-12T19:15:29;98813.03;;;6.01;100.00
5814;BME280;2933;52.302;8.134;2023-04-12T19:20:31;98819.09;;;6.26;100.00
5814;BME280;2933;52.302;8.134;2023-04-12T19:25:34;98832.81;;;6.15;100.00
5814;BME280;2933;52.302;8.134;2023-04-12T19:30:35;98830.00;;;6.18;100.00
5814;BME280;2933;52.302;8.134;2023-04-12T19:35:37;98841.09;;;6.20;100.00
5814;BME280;2933;52.302;8.134;2023-04-12T19:40:40;98825.16;;;6.13;100.00
5814;BME280;2933;52.302;8.134;2023-04-12T19:45:41;98836.88;;;6.06;100.00
5814;BME280;2933;52.302;8.134;2023-04-12T19:50:45;98834.25;;;5.93;100.00
5814;BME280;2933;52.302;8.134;2023-04-12T19:55:48;98837.38;;;5.86;100.00
5814;BME280;2933;52.302;8.134;2023-04-12T20:00:51;98839.44;;;5.80;100.00
5814;BME280;2933;52.302;8.134;2023-04-12T20:05:54;98848.75;;;5.83;100.00
5814;BME280;2933;52.302;8.134;2023-04-12T20:10:58;98853.44;;;5.91;100.00
5814;BME280;2933;52.302;8.134;2023-04-12T20:16:00;98843.69;;;5.81;100.00
5814;BME280;2933;52.302;8.134;2023-04-12T20:21:03;98856.34;;;5.73;100.00
5814;BME280;2933;52.302;8.134;2023-04-12T20:26:08;98854.56;;;5.74;100.00
5814;BME280;2933;52.302;8.134;2023-04-12T20:31:10;98842.75;;;5.57;100.00
5814;BME280;2933;52.302;8.134;2023-04-12T20:36:12;98845.25;;;5.58;100.00
5814;BME280;2933;52.302;8.134;2023-04-12T20:41:16;98839.84;;;5.48;100.00
5814;BME280;2933;52.302;8.134;2023-04-12T20:46:17;98836.63;;;5.45;100.00
5814;BME280;2933;52.302;8.134;2023-04-12T20:51:24;98840.66;;;5.49;100.00
5814;BME280;2933;52.302;8.134;2023-04-12T20:56:28;98820.66;;;5.38;100.00
5814;BME280;2933;52.302;8.134;2023-04-12T21:01:29;98827.91;;;5.33;100.00
5814;BME280;2933;52.302;8.134;2023-04-12T21:06:31;98814.75;;;5.36;100.00
5814;BME280;2933;52.302;8.134;2023-04-12T21:11:35;98810.91;;;5.29;100.00
5814;BME280;2933;52.302;8.134;2023-04-12T21:16:36;98818.25;;;5.22;100.00
5814;BME280;2933;52.302;8.134;2023-04-12T21:21:38;98809.66;;;5.22;100.00
5814;BME280;2933;52.302;8.134;2023-04-12T21:26:42;98805.91;;;5.13;100.00
5814;BME280;2933;52.302;8.134;2023-04-12T21:31:43;98811.78;;;5.02;100.00
5814;BME280;2933;52.302;8.134;2023-04-12T21:36:46;98807.97;;;5.08;100.00
5814;BME280;2933;52.302;8.134;2023-04-12T21:41:49;98815.84;;;5.06;100.00
5814;BME280;2933;52.302;8.134;2023-04-12T21:46:50;98815.59;;;4.96;100.00
5814;BME280;2933;52.302;8.134;2023-04-12T21:51:52;98811.63;;;4.91;100.00
5814;BME280;2933;52.302;8.134;2023-04-12T21:56:57;98821.94;;;5.05;100.00
5814;BME280;2933;52.302;8.134;2023-04-12T22:01:58;98827.81;;;4.94;100.00
5814;BME280;2933;52.302;8.134;2023-04-12T22:07:00;98820.31;;;4.90;100.00
5814;BME280;2933;52.302;8.134;2023-04-12T22:12:05;98808.63;;;4.57;100.00
5814;BME280;2933;52.302;8.134;2023-04-12T22:17:07;98811.50;;;4.37;100.00
5814;BME280;2933;52.302;8.134;2023-04-12T22:22:09;98808.97;;;4.23;100.00
5814;BME280;2933;52.302;8.134;2023-04-12T22:27:12;98815.88;;;4.23;100.00
5814;BME280;2933;52.302;8.134;2023-04-12T22:32:15;98811.66;;;4.22;100.00
5814;BME280;2933;52.302;8.134;2023-04-12T22:37:16;98812.56;;;4.20;100.00
5814;BME280;2933;52.302;8.134;2023-04-12T22:42:19;98813.88;;;3.99;100.00
5814;BME280;2933;52.302;8.134;2023-04-12T22:47:25;98811.66;;;4.22;100.00
5814;BME280;2933;52.302;8.134;2023-04-12T22:52:27;98807.78;;;4.14;100.00
5814;BME280;2933;52.302;8.134;2023-04-12T22:57:31;98808.59;;;4.29;100.00
5814;BME280;2933;52.302;8.134;2023-04-12T23:02:34;98802.06;;;3.95;100.00
5814;BME280;2933;52.302;8.134;2023-04-12T23:07:35;98788.03;;;3.99;100.00
5814;BME280;2933;52.302;8.134;2023-04-12T23:12:38;98784.44;;;3.87;100.00
5814;BME280;2933;52.302;8.134;2023-04-12T23:17:40;98771.69;;;3.84;100.00
5814;BME280;2933;52.302;8.134;2023-04-12T23:22:42;98751.69;;;3.87;100.00
5814;BME280;2933;52.302;8.134;2023-04-12T23:27:55;98741.59;;;4.12;100.00
5814;BME280;2933;52.302;8.134;2023-04-12T23:32:56;98760.94;;;3.77;100.00
5814;BME280;2933;52.302;8.134;2023-04-12T23:37:59;98760.44;;;3.99;100.00
5814;BME280;2933;52.302;8.134;2023-04-12T23:43:02;98759.00;;;3.81;100.00
5814;BME280;2933;52.302;8.134;2023-04-12T23:48:04;98755.22;;;3.72;100.00
5814;BME280;2933;52.302;8.134;2023-04-12T23:53:05;98755.28;;;3.70;100.00
5814;BME280;2933;52.302;8.134;2023-04-12T23:58:08;98741.25;;;4.03;100.00
